Laquey, Missouri
Current Conditions -  °F | °C
As of 10:58 AM on Saturday 20 Dec 2014 (Local Time) from KTBN Reporting Station
Overcast Overcast  
Wind Chill: 40°   Ceiling: 800
Heat Index: 40°   Visibility: 10mi
Dew Point: 39°   Wind: 3mph
Humidity: 96%   Direction: 180°S
Pressure: 30.22"   Gusts: NA
Location:  37.77°N, 92.3°W
Report Text: KTBN 201658Z AUTO 18003KT 10SM BKN008 OVC019 04/04 A3022 RMK AO2 SLP244 T00430037
Loading
Personal Weather Stations






























Interactive Weather Map New forecast layout! Learn more

10-Day Weather Forecast

Advertisements
Track Severe Weather on mobile